»·PEaware :: N5306U KASE-KAPA

N5306U :: KASE-KAPA

FLIGHT INFORMATION

Flight Status: Arrived
Operator: Privately registered:
United States
More flights under this callsign
Pilot: Chris W. (14888)
Aircraft: CESSNA 550 CITATION 2/S2/BRAVO
(C550)
More flights by this aircraft type
Origin: KASE Aspen-Pitkin Co/Sardy
United States
Destination: KAPA Centennial
United States
More flights between these airports :: More routes between these airports
Route: +LINDZ8 DBL JNETT CABOB ZOMBZ ZOMBZ1
File this flight plan on PilotEdge
Remarks:
Altitude:
(Current/Filed)
21,000ft
Speed:
(Current/Filed)
250kts
Departed: 24-Nov-17 02:51 PM
Arrived: 24-Nov-17 03:22 PM
Distance/Time
Traveled:
96nm/0:31
Distance/Time
To Go:
Arrived

Flight Plot

Page will automatically refresh every two minutes.

Flight plan parsing failed; only flown route is shown


Map Options




Map Legend


Flown Route
Filed Route
Departure Airport
Arrival Airport
Navaid (VOR, NDB)
Fix

Horizontal Profiles

Position Reports

Time Latitude Longitude Heading Altitude Ground
Speed
24-Nov-17 14:36 39.226137 -106.868961 69 7822ft 0kts
24-Nov-17 14:37 39.226137 -106.868961 69 7822ft 0kts
24-Nov-17 14:38 39.226137 -106.868961 69 7822ft 0kts
24-Nov-17 14:39 39.226138 -106.868961 69 7822ft 0kts
24-Nov-17 14:40 39.226138 -106.868960 69 7822ft 0kts
24-Nov-17 14:41 39.226138 -106.868960 69 7822ft 0kts
24-Nov-17 14:42 39.226138 -106.868960 69 7822ft 0kts
24-Nov-17 14:43 39.226138 -106.868959 69 7822ft 0kts
24-Nov-17 14:44 39.226138 -106.868959 69 7822ft 0kts
24-Nov-17 14:45 39.226138 -106.868959 69 7822ft 0kts
24-Nov-17 14:46 39.226138 -106.868959 69 7822ft 0kts
24-Nov-17 14:47 39.226138 -106.868958 69 7822ft 0kts
24-Nov-17 14:48 39.226138 -106.868958 69 7822ft 0kts
24-Nov-17 14:49 39.226138 -106.868958 69 7822ft 0kts
24-Nov-17 14:50 39.226139 -106.868957 69 7822ft 0kts
24-Nov-17 14:51 39.224032 -106.868554 158 7822ft 16kts
24-Nov-17 14:52 39.218777 -106.866061 159 7822ft 11kts
24-Nov-17 14:53 39.218416 -106.865894 159 7822ft 0kts
24-Nov-17 14:54 39.218344 -106.865860 159 7822ft 6kts
24-Nov-17 14:55 39.214494 -106.864167 252 7822ft 0kts
24-Nov-17 14:56 39.216294 -106.865572 339 7822ft 52kts
24-Nov-17 14:57 39.248856 -106.879974 349 8624ft 159kts
24-Nov-17 14:58 39.278500 -106.920186 283 10370ft 187kts
24-Nov-17 14:59 39.287278 -106.989935 281 12132ft 206kts
24-Nov-17 15:00 39.316622 -107.054416 301 14078ft 212kts
24-Nov-17 15:01 39.370888 -107.080641 14 15940ft 270kts
24-Nov-17 15:02 39.394900 -106.985590 112 17447ft 323kts
24-Nov-17 15:03 39.380372 -106.868932 91 18846ft 336kts
24-Nov-17 15:04 39.372999 -106.745953 93 20018ft 351kts
24-Nov-17 15:05 39.362733 -106.613938 93 20170ft 380kts
24-Nov-17 15:06 39.350139 -106.478526 104 20197ft 381kts
24-Nov-17 15:07 39.311246 -106.351488 117 20794ft 382kts
24-Nov-17 15:08 39.265316 -106.226779 117 21215ft 386kts
24-Nov-17 15:09 39.219699 -106.101405 116 21256ft 387kts
24-Nov-17 15:10 39.175093 -105.976134 117 21225ft 381kts
24-Nov-17 15:11 39.130850 -105.852006 116 20941ft 379kts
24-Nov-17 15:12 39.086988 -105.729283 116 20434ft 373kts
24-Nov-17 15:13 39.043621 -105.608665 117 19920ft 369kts
24-Nov-17 15:14 39.001009 -105.488088 108 19427ft 386kts
24-Nov-17 15:15 39.028031 -105.365593 37 18272ft 352kts
24-Nov-17 15:16 39.098614 -105.293282 28 16308ft 310kts
24-Nov-17 15:17 39.166840 -105.219031 42 15177ft 328kts
24-Nov-17 15:18 39.193304 -105.105526 84 14900ft 345kts
24-Nov-17 15:19 39.182211 -104.985113 103 12758ft 325kts
24-Nov-17 15:20 39.200358 -104.899419 35 11231ft 299kts
24-Nov-17 15:21 39.285057 -104.859786 9 9790ft 270kts
24-Nov-17 15:22 39.343033 -104.844917 4 9075ft 234kts
24-Nov-17 15:23 39.403913 -104.842321 354 8188ft 202kts
24-Nov-17 15:24 39.463353 -104.845963 358 7796ft 183kts
24-Nov-17 15:25 39.508250 -104.848005 357 7035ft 166kts
24-Nov-17 15:26 39.549419 -104.849876 357 6073ft 108kts
24-Nov-17 15:27 39.568728 -104.850785 357 5885ft 37kts
24-Nov-17 15:28 39.571792 -104.849870 21 5885ft 5kts

Navigation Log

Ident Type
Flight plan parsing failed, navigation log unavailable